sensor_id;sensor_type;location;lat;lon;timestamp;P1;durP1;ratioP1;P2;durP2;ratioP2
1471;SDS011;963;42.644;23.336;2023-05-07T00:01:47;7.60;;;6.30;;
1471;SDS011;963;42.644;23.336;2023-05-07T00:04:12;10.43;;;7.20;;
1471;SDS011;963;42.644;23.336;2023-05-07T00:06:38;11.90;;;8.87;;
1471;SDS011;963;42.644;23.336;2023-05-07T00:09:04;14.67;;;8.90;;
1471;SDS011;963;42.644;23.336;2023-05-07T00:11:30;17.47;;;9.13;;
1471;SDS011;963;42.644;23.336;2023-05-07T00:13:56;11.27;;;9.90;;
1471;SDS011;963;42.644;23.336;2023-05-07T00:16:21;12.67;;;10.13;;
1471;SDS011;963;42.644;23.336;2023-05-07T00:18:47;13.57;;;10.93;;
1471;SDS011;963;42.644;23.336;2023-05-07T00:21:12;10.20;;;9.10;;
1471;SDS011;963;42.644;23.336;2023-05-07T00:23:38;11.00;;;9.60;;
1471;SDS011;963;42.644;23.336;2023-05-07T00:26:03;11.03;;;9.93;;
1471;SDS011;963;42.644;23.336;2023-05-07T00:28:29;13.37;;;10.53;;
1471;SDS011;963;42.644;23.336;2023-05-07T00:30:54;14.03;;;11.20;;
1471;SDS011;963;42.644;23.336;2023-05-07T00:33:20;17.90;;;11.03;;
1471;SDS011;963;42.644;23.336;2023-05-07T00:35:46;15.20;;;10.13;;
1471;SDS011;963;42.644;23.336;2023-05-07T00:38:11;12.23;;;10.90;;
1471;SDS011;963;42.644;23.336;2023-05-07T00:40:37;14.13;;;11.20;;
1471;SDS011;963;42.644;23.336;2023-05-07T00:43:02;16.23;;;9.80;;
1471;SDS011;963;42.644;23.336;2023-05-07T00:45:28;11.97;;;10.20;;
1471;SDS011;963;42.644;23.336;2023-05-07T00:47:55;13.30;;;10.97;;
1471;SDS011;963;42.644;23.336;2023-05-07T00:50:22;16.87;;;10.60;;
1471;SDS011;963;42.644;23.336;2023-05-07T00:52:48;12.40;;;10.77;;
1471;SDS011;963;42.644;23.336;2023-05-07T00:55:14;13.97;;;10.40;;
1471;SDS011;963;42.644;23.336;2023-05-07T00:57:40;13.17;;;9.43;;
1471;SDS011;963;42.644;23.336;2023-05-07T01:00:07;11.07;;;9.80;;
1471;SDS011;963;42.644;23.336;2023-05-07T01:02:34;18.40;;;9.83;;
1471;SDS011;963;42.644;23.336;2023-05-07T01:05:01;12.67;;;9.77;;
1471;SDS011;963;42.644;23.336;2023-05-07T01:07:29;9.87;;;8.87;;
1471;SDS011;963;42.644;23.336;2023-05-07T01:09:55;12.87;;;9.27;;
1471;SDS011;963;42.644;23.336;2023-05-07T01:12:22;11.27;;;9.00;;
1471;SDS011;963;42.644;23.336;2023-05-07T01:14:48;10.80;;;8.90;;
1471;SDS011;963;42.644;23.336;2023-05-07T01:17:15;10.17;;;8.17;;
1471;SDS011;963;42.644;23.336;2023-05-07T01:19:41;10.63;;;8.40;;
1471;SDS011;963;42.644;23.336;2023-05-07T01:22:07;8.20;;;7.10;;
1471;SDS011;963;42.644;23.336;2023-05-07T01:24:36;12.40;;;8.60;;
1471;SDS011;963;42.644;23.336;2023-05-07T01:27:01;8.50;;;6.63;;
1471;SDS011;963;42.644;23.336;2023-05-07T01:29:27;8.23;;;6.33;;
1471;SDS011;963;42.644;23.336;2023-05-07T01:31:53;7.10;;;6.40;;
1471;SDS011;963;42.644;23.336;2023-05-07T01:34:21;7.77;;;6.57;;
1471;SDS011;963;42.644;23.336;2023-05-07T01:36:49;8.60;;;5.70;;
1471;SDS011;963;42.644;23.336;2023-05-07T01:39:15;7.13;;;6.40;;
1471;SDS011;963;42.644;23.336;2023-05-07T01:41:41;9.77;;;5.93;;
1471;SDS011;963;42.644;23.336;2023-05-07T01:44:08;7.80;;;5.60;;
1471;SDS011;963;42.644;23.336;2023-05-07T01:46:37;6.30;;;5.70;;
1471;SDS011;963;42.644;23.336;2023-05-07T01:49:02;8.20;;;6.37;;
1471;SDS011;963;42.644;23.336;2023-05-07T01:51:29;10.70;;;7.10;;
1471;SDS011;963;42.644;23.336;2023-05-07T01:53:55;9.33;;;7.67;;
1471;SDS011;963;42.644;23.336;2023-05-07T01:56:21;9.77;;;8.40;;
1471;SDS011;963;42.644;23.336;2023-05-07T01:58:46;8.93;;;8.03;;
1471;SDS011;963;42.644;23.336;2023-05-07T02:01:13;10.10;;;8.50;;
1471;SDS011;963;42.644;23.336;2023-05-07T02:03:39;10.33;;;8.77;;
1471;SDS011;963;42.644;23.336;2023-05-07T02:06:05;11.47;;;8.43;;
1471;SDS011;963;42.644;23.336;2023-05-07T02:08:30;13.37;;;8.90;;
1471;SDS011;963;42.644;23.336;2023-05-07T02:10:56;10.27;;;8.33;;
1471;SDS011;963;42.644;23.336;2023-05-07T02:13:21;10.13;;;8.73;;
1471;SDS011;963;42.644;23.336;2023-05-07T02:15:50;10.10;;;9.10;;
1471;SDS011;963;42.644;23.336;2023-05-07T02:18:15;10.90;;;8.87;;
1471;SDS011;963;42.644;23.336;2023-05-07T02:20:41;12.47;;;9.50;;
1471;SDS011;963;42.644;23.336;2023-05-07T02:23:07;9.33;;;8.37;;
1471;SDS011;963;42.644;23.336;2023-05-07T02:25:32;10.20;;;8.37;;
1471;SDS011;963;42.644;23.336;2023-05-07T02:27:58;9.87;;;8.87;;
1471;SDS011;963;42.644;23.336;2023-05-07T02:30:24;10.60;;;8.50;;
1471;SDS011;963;42.644;23.336;2023-05-07T02:32:50;10.10;;;8.40;;
1471;SDS011;963;42.644;23.336;2023-05-07T02:35:15;10.63;;;8.13;;
1471;SDS011;963;42.644;23.336;2023-05-07T02:37:41;10.40;;;9.30;;
1471;SDS011;963;42.644;23.336;2023-05-07T02:40:06;9.73;;;8.70;;
1471;SDS011;963;42.644;23.336;2023-05-07T02:42:32;10.50;;;8.30;;
1471;SDS011;963;42.644;23.336;2023-05-07T02:44:58;9.67;;;8.27;;
1471;SDS011;963;42.644;23.336;2023-05-07T02:47:24;8.40;;;7.50;;
1471;SDS011;963;42.644;23.336;2023-05-07T02:49:51;8.87;;;7.97;;
1471;SDS011;963;42.644;23.336;2023-05-07T02:52:18;9.27;;;7.60;;
1471;SDS011;963;42.644;23.336;2023-05-07T02:54:43;9.00;;;8.03;;
1471;SDS011;963;42.644;23.336;2023-05-07T02:57:08;9.43;;;7.90;;
1471;SDS011;963;42.644;23.336;2023-05-07T02:59:34;8.73;;;7.60;;
1471;SDS011;963;42.644;23.336;2023-05-07T03:01:59;9.10;;;8.07;;
1471;SDS011;963;42.644;23.336;2023-05-07T03:04:25;8.93;;;8.00;;
1471;SDS011;963;42.644;23.336;2023-05-07T03:06:50;11.20;;;7.47;;
1471;SDS011;963;42.644;23.336;2023-05-07T03:09:16;7.63;;;6.83;;
1471;SDS011;963;42.644;23.336;2023-05-07T03:11:41;8.30;;;7.50;;
1471;SDS011;963;42.644;23.336;2023-05-07T03:14:07;9.10;;;8.07;;
1471;SDS011;963;42.644;23.336;2023-05-07T03:16:32;11.23;;;8.50;;
1471;SDS011;963;42.644;23.336;2023-05-07T03:18:58;8.97;;;7.97;;
1471;SDS011;963;42.644;23.336;2023-05-07T03:21:23;9.37;;;7.53;;
1471;SDS011;963;42.644;23.336;2023-05-07T03:23:49;9.50;;;8.10;;
1471;SDS011;963;42.644;23.336;2023-05-07T03:26:14;8.73;;;7.57;;
1471;SDS011;963;42.644;23.336;2023-05-07T03:28:39;11.47;;;8.27;;
1471;SDS011;963;42.644;23.336;2023-05-07T03:31:05;10.03;;;8.00;;
1471;SDS011;963;42.644;23.336;2023-05-07T03:33:32;10.27;;;8.67;;
1471;SDS011;963;42.644;23.336;2023-05-07T03:35:58;10.53;;;8.80;;
1471;SDS011;963;42.644;23.336;2023-05-07T03:38:24;11.50;;;8.73;;
1471;SDS011;963;42.644;23.336;2023-05-07T03:40:49;10.33;;;8.70;;
1471;SDS011;963;42.644;23.336;2023-05-07T03:43:15;10.00;;;7.97;;
1471;SDS011;963;42.644;23.336;2023-05-07T03:45:40;13.40;;;8.70;;
1471;SDS011;963;42.644;23.336;2023-05-07T03:48:06;12.00;;;8.37;;
1471;SDS011;963;42.644;23.336;2023-05-07T03:50:32;12.07;;;8.80;;
1471;SDS011;963;42.644;23.336;2023-05-07T03:52:57;9.40;;;8.50;;
1471;SDS011;963;42.644;23.336;2023-05-07T03:55:23;12.00;;;9.13;;
1471;SDS011;963;42.644;23.336;2023-05-07T03:57:48;11.60;;;9.17;;
1471;SDS011;963;42.644;23.336;2023-05-07T04:00:13;10.33;;;8.60;;
1471;SDS011;963;42.644;23.336;2023-05-07T04:02:39;12.27;;;7.90;;
1471;SDS011;963;42.644;23.336;2023-05-07T04:05:04;10.00;;;8.10;;
1471;SDS011;963;42.644;23.336;2023-05-07T04:07:30;10.17;;;8.43;;
1471;SDS011;963;42.644;23.336;2023-05-07T04:09:56;10.37;;;9.30;;
1471;SDS011;963;42.644;23.336;2023-05-07T04:12:21;9.40;;;8.50;;
1471;SDS011;963;42.644;23.336;2023-05-07T04:14:46;10.23;;;9.13;;
1471;SDS011;963;42.644;23.336;2023-05-07T04:17:12;12.70;;;9.30;;
1471;SDS011;963;42.644;23.336;2023-05-07T04:19:37;11.37;;;9.13;;
1471;SDS011;963;42.644;23.336;2023-05-07T04:22:03;10.27;;;8.83;;
1471;SDS011;963;42.644;23.336;2023-05-07T04:24:30;13.43;;;9.10;;
1471;SDS011;963;42.644;23.336;2023-05-07T04:26:58;10.67;;;9.40;;
1471;SDS011;963;42.644;23.336;2023-05-07T04:29:23;9.93;;;8.93;;
1471;SDS011;963;42.644;23.336;2023-05-07T04:31:49;9.70;;;8.60;;
1471;SDS011;963;42.644;23.336;2023-05-07T04:34:14;12.27;;;9.40;;
1471;SDS011;963;42.644;23.336;2023-05-07T04:36:40;11.07;;;9.20;;
1471;SDS011;963;42.644;23.336;2023-05-07T04:39:05;12.50;;;10.00;;
1471;SDS011;963;42.644;23.336;2023-05-07T04:41:31;11.80;;;9.30;;
1471;SDS011;963;42.644;23.336;2023-05-07T04:43:57;12.53;;;9.40;;
1471;SDS011;963;42.644;23.336;2023-05-07T04:46:23;10.07;;;9.07;;
1471;SDS011;963;42.644;23.336;2023-05-07T04:48:49;10.83;;;8.40;;
1471;SDS011;963;42.644;23.336;2023-05-07T04:51:15;12.50;;;9.20;;
1471;SDS011;963;42.644;23.336;2023-05-07T04:53:40;13.03;;;8.90;;
1471;SDS011;963;42.644;23.336;2023-05-07T04:56:08;10.77;;;9.10;;
1471;SDS011;963;42.644;23.336;2023-05-07T04:58:33;11.83;;;9.33;;
1471;SDS011;963;42.644;23.336;2023-05-07T05:00:59;10.47;;;9.37;;
1471;SDS011;963;42.644;23.336;2023-05-07T05:03:25;13.80;;;9.90;;
1471;SDS011;963;42.644;23.336;2023-05-07T05:05:51;11.30;;;9.30;;
1471;SDS011;963;42.644;23.336;2023-05-07T05:08:17;10.00;;;8.57;;
1471;SDS011;963;42.644;23.336;2023-05-07T05:10:43;10.40;;;8.40;;
1471;SDS011;963;42.644;23.336;2023-05-07T05:13:08;12.13;;;8.90;;
1471;SDS011;963;42.644;23.336;2023-05-07T05:15:35;13.67;;;8.80;;
1471;SDS011;963;42.644;23.336;2023-05-07T05:18:00;11.17;;;8.40;;
1471;SDS011;963;42.644;23.336;2023-05-07T05:20:26;12.03;;;9.10;;
1471;SDS011;963;42.644;23.336;2023-05-07T05:22:51;12.53;;;9.40;;
1471;SDS011;963;42.644;23.336;2023-05-07T05:25:17;12.43;;;9.43;;
1471;SDS011;963;42.644;23.336;2023-05-07T05:27:42;13.20;;;8.50;;
1471;SDS011;963;42.644;23.336;2023-05-07T05:30:08;10.10;;;8.23;;
1471;SDS011;963;42.644;23.336;2023-05-07T05:32:34;10.23;;;9.00;;
1471;SDS011;963;42.644;23.336;2023-05-07T05:34:59;9.27;;;8.37;;
1471;SDS011;963;42.644;23.336;2023-05-07T05:37:25;9.20;;;8.30;;
1471;SDS011;963;42.644;23.336;2023-05-07T05:39:50;9.40;;;8.50;;
1471;SDS011;963;42.644;23.336;2023-05-07T05:42:16;9.27;;;8.37;;
1471;SDS011;963;42.644;23.336;2023-05-07T05:44:41;9.87;;;8.40;;
1471;SDS011;963;42.644;23.336;2023-05-07T05:47:07;10.83;;;8.70;;
1471;SDS011;963;42.644;23.336;2023-05-07T05:49:32;11.73;;;8.70;;
1471;SDS011;963;42.644;23.336;2023-05-07T05:51:57;8.90;;;8.00;;
1471;SDS011;963;42.644;23.336;2023-05-07T05:54:23;9.60;;;7.83;;
1471;SDS011;963;42.644;23.336;2023-05-07T05:56:48;9.27;;;7.70;;
1471;SDS011;963;42.644;23.336;2023-05-07T05:59:14;11.27;;;8.60;;
1471;SDS011;963;42.644;23.336;2023-05-07T06:01:39;8.40;;;7.50;;
1471;SDS011;963;42.644;23.336;2023-05-07T06:04:05;9.90;;;8.00;;
1471;SDS011;963;42.644;23.336;2023-05-07T06:06:31;8.70;;;7.80;;
1471;SDS011;963;42.644;23.336;2023-05-07T06:08:56;13.80;;;8.23;;
1471;SDS011;963;42.644;23.336;2023-05-07T06:11:22;9.10;;;8.00;;
1471;SDS011;963;42.644;23.336;2023-05-07T06:13:47;11.10;;;8.43;;
1471;SDS011;963;42.644;23.336;2023-05-07T06:16:13;10.73;;;8.00;;
1471;SDS011;963;42.644;23.336;2023-05-07T06:18:40;10.43;;;8.33;;
1471;SDS011;963;42.644;23.336;2023-05-07T06:21:05;10.27;;;7.43;;
1471;SDS011;963;42.644;23.336;2023-05-07T06:23:30;9.37;;;7.43;;
1471;SDS011;963;42.644;23.336;2023-05-07T06:25:56;14.10;;;7.77;;
1471;SDS011;963;42.644;23.336;2023-05-07T06:28:21;8.43;;;7.30;;
1471;SDS011;963;42.644;23.336;2023-05-07T06:30:47;13.70;;;7.70;;
1471;SDS011;963;42.644;23.336;2023-05-07T06:33:14;10.40;;;7.30;;
1471;SDS011;963;42.644;23.336;2023-05-07T06:35:40;11.20;;;8.13;;
1471;SDS011;963;42.644;23.336;2023-05-07T06:38:05;8.00;;;7.30;;
1471;SDS011;963;42.644;23.336;2023-05-07T06:40:31;8.77;;;7.53;;
1471;SDS011;963;42.644;23.336;2023-05-07T06:42:56;9.47;;;7.50;;
1471;SDS011;963;42.644;23.336;2023-05-07T06:45:22;11.07;;;7.90;;
1471;SDS011;963;42.644;23.336;2023-05-07T06:47:47;10.80;;;7.77;;
1471;SDS011;963;42.644;23.336;2023-05-07T06:50:13;8.43;;;7.47;;
1471;SDS011;963;42.644;23.336;2023-05-07T06:52:38;8.13;;;7.20;;
1471;SDS011;963;42.644;23.336;2023-05-07T06:55:04;12.10;;;7.40;;
1471;SDS011;963;42.644;23.336;2023-05-07T06:57:30;7.57;;;6.77;;
1471;SDS011;963;42.644;23.336;2023-05-07T06:59:55;10.27;;;6.40;;
1471;SDS011;963;42.644;23.336;2023-05-07T07:02:21;8.40;;;7.60;;
1471;SDS011;963;42.644;23.336;2023-05-07T07:04:46;8.40;;;7.00;;
1471;SDS011;963;42.644;23.336;2023-05-07T07:07:11;6.27;;;5.67;;
1471;SDS011;963;42.644;23.336;2023-05-07T07:09:37;8.40;;;7.07;;
1471;SDS011;963;42.644;23.336;2023-05-07T07:12:02;7.97;;;6.37;;
1471;SDS011;963;42.644;23.336;2023-05-07T07:14:28;12.00;;;7.50;;
1471;SDS011;963;42.644;23.336;2023-05-07T07:16:53;8.10;;;6.53;;
1471;SDS011;963;42.644;23.336;2023-05-07T07:19:19;7.60;;;6.67;;
1471;SDS011;963;42.644;23.336;2023-05-07T07:21:45;9.93;;;6.67;;
1471;SDS011;963;42.644;23.336;2023-05-07T07:24:10;9.53;;;6.77;;
1471;SDS011;963;42.644;23.336;2023-05-07T07:26:36;8.00;;;5.60;;
1471;SDS011;963;42.644;23.336;2023-05-07T07:29:02;8.93;;;6.27;;
1471;SDS011;963;42.644;23.336;2023-05-07T07:31:27;7.27;;;6.00;;
1471;SDS011;963;42.644;23.336;2023-05-07T07:33:52;7.40;;;6.27;;
1471;SDS011;963;42.644;23.336;2023-05-07T07:36:18;10.20;;;7.27;;
1471;SDS011;963;42.644;23.336;2023-05-07T07:38:43;9.50;;;7.30;;
1471;SDS011;963;42.644;23.336;2023-05-07T07:41:09;9.57;;;6.87;;
1471;SDS011;963;42.644;23.336;2023-05-07T07:43:34;9.17;;;7.20;;
1471;SDS011;963;42.644;23.336;2023-05-07T07:46:00;11.17;;;6.73;;
1471;SDS011;963;42.644;23.336;2023-05-07T07:48:26;7.87;;;6.90;;
1471;SDS011;963;42.644;23.336;2023-05-07T07:50:51;8.37;;;7.03;;
1471;SDS011;963;42.644;23.336;2023-05-07T07:53:17;11.00;;;7.00;;
1471;SDS011;963;42.644;23.336;2023-05-07T07:55:43;8.97;;;7.70;;
1471;SDS011;963;42.644;23.336;2023-05-07T07:58:09;10.93;;;8.50;;
1471;SDS011;963;42.644;23.336;2023-05-07T08:00:34;9.47;;;8.57;;
1471;SDS011;963;42.644;23.336;2023-05-07T08:03:00;10.43;;;9.23;;
1471;SDS011;963;42.644;23.336;2023-05-07T08:05:26;11.40;;;9.13;;
1471;SDS011;963;42.644;23.336;2023-05-07T08:07:51;11.37;;;9.50;;
1471;SDS011;963;42.644;23.336;2023-05-07T08:10:17;10.30;;;9.20;;
1471;SDS011;963;42.644;23.336;2023-05-07T08:12:46;18.07;;;10.43;;
1471;SDS011;963;42.644;23.336;2023-05-07T08:15:13;10.37;;;9.27;;
1471;SDS011;963;42.644;23.336;2023-05-07T08:17:38;10.50;;;9.20;;
1471;SDS011;963;42.644;23.336;2023-05-07T08:20:04;10.77;;;9.67;;
1471;SDS011;963;42.644;23.336;2023-05-07T08:22:30;11.53;;;9.60;;
1471;SDS011;963;42.644;23.336;2023-05-07T08:24:55;11.00;;;8.70;;
1471;SDS011;963;42.644;23.336;2023-05-07T08:27:21;13.10;;;9.00;;
1471;SDS011;963;42.644;23.336;2023-05-07T08:29:46;10.83;;;8.83;;
1471;SDS011;963;42.644;23.336;2023-05-07T08:32:13;8.83;;;7.93;;
1471;SDS011;963;42.644;23.336;2023-05-07T08:34:38;9.83;;;8.77;;
1471;SDS011;963;42.644;23.336;2023-05-07T08:37:04;10.83;;;9.07;;
1471;SDS011;963;42.644;23.336;2023-05-07T08:39:29;12.50;;;8.40;;
1471;SDS011;963;42.644;23.336;2023-05-07T08:41:55;8.70;;;7.70;;
1471;SDS011;963;42.644;23.336;2023-05-07T08:44:22;10.10;;;8.03;;
1471;SDS011;963;42.644;23.336;2023-05-07T08:46:51;9.03;;;7.30;;
1471;SDS011;963;42.644;23.336;2023-05-07T08:49:19;11.60;;;7.80;;
1471;SDS011;963;42.644;23.336;2023-05-07T08:51:45;8.60;;;7.10;;
1471;SDS011;963;42.644;23.336;2023-05-07T08:54:11;8.47;;;7.20;;
1471;SDS011;963;42.644;23.336;2023-05-07T08:56:41;12.27;;;6.00;;
1471;SDS011;963;42.644;23.336;2023-05-07T08:59:06;7.83;;;6.20;;
1471;SDS011;963;42.644;23.336;2023-05-07T09:01:32;7.30;;;6.07;;
1471;SDS011;963;42.644;23.336;2023-05-07T09:03:57;11.53;;;7.60;;
1471;SDS011;963;42.644;23.336;2023-05-07T09:06:23;9.03;;;6.23;;
1471;SDS011;963;42.644;23.336;2023-05-07T09:08:49;9.70;;;7.10;;
1471;SDS011;963;42.644;23.336;2023-05-07T09:11:16;9.43;;;6.63;;
1471;SDS011;963;42.644;23.336;2023-05-07T09:13:44;7.57;;;6.77;;
1471;SDS011;963;42.644;23.336;2023-05-07T09:16:13;8.17;;;7.33;;
1471;SDS011;963;42.644;23.336;2023-05-07T09:18:42;7.80;;;6.50;;
1471;SDS011;963;42.644;23.336;2023-05-07T09:21:14;10.30;;;6.80;;
1471;SDS011;963;42.644;23.336;2023-05-07T09:23:41;7.50;;;6.70;;
1471;SDS011;963;42.644;23.336;2023-05-07T09:26:07;8.30;;;7.17;;
1471;SDS011;963;42.644;23.336;2023-05-07T09:28:39;8.13;;;7.27;;
1471;SDS011;963;42.644;23.336;2023-05-07T09:31:09;7.83;;;6.50;;
1471;SDS011;963;42.644;23.336;2023-05-07T09:33:35;9.03;;;7.60;;
1471;SDS011;963;42.644;23.336;2023-05-07T09:36:04;7.97;;;7.13;;
1471;SDS011;963;42.644;23.336;2023-05-07T09:38:31;11.33;;;6.20;;
1471;SDS011;963;42.644;23.336;2023-05-07T09:41:11;7.20;;;6.50;;
1471;SDS011;963;42.644;23.336;2023-05-07T09:43:38;8.50;;;7.03;;
1471;SDS011;963;42.644;23.336;2023-05-07T09:46:13;7.07;;;6.37;;
1471;SDS011;963;42.644;23.336;2023-05-07T09:48:41;8.27;;;7.47;;
1471;SDS011;963;42.644;23.336;2023-05-07T09:53:40;7.87;;;6.83;;
1471;SDS011;963;42.644;23.336;2023-05-07T09:56:07;7.53;;;6.37;;
1471;SDS011;963;42.644;23.336;2023-05-07T09:58:32;8.40;;;6.07;;
1471;SDS011;963;42.644;23.336;2023-05-07T10:01:02;8.93;;;6.50;;
1471;SDS011;963;42.644;23.336;2023-05-07T10:03:27;9.40;;;6.70;;
1471;SDS011;963;42.644;23.336;2023-05-07T10:05:56;8.53;;;7.33;;
1471;SDS011;963;42.644;23.336;2023-05-07T10:08:23;10.90;;;7.20;;
1471;SDS011;963;42.644;23.336;2023-05-07T10:10:49;10.07;;;6.50;;
1471;SDS011;963;42.644;23.336;2023-05-07T10:13:15;8.30;;;6.77;;
1471;SDS011;963;42.644;23.336;2023-05-07T10:15:42;7.63;;;6.10;;
1471;SDS011;963;42.644;23.336;2023-05-07T10:18:09;7.53;;;6.10;;
1471;SDS011;963;42.644;23.336;2023-05-07T10:20:36;6.83;;;6.10;;
1471;SDS011;963;42.644;23.336;2023-05-07T10:23:03;7.37;;;5.37;;
1471;SDS011;963;42.644;23.336;2023-05-07T10:25:30;8.13;;;5.97;;
1471;SDS011;963;42.644;23.336;2023-05-07T10:27:59;8.03;;;5.70;;
1471;SDS011;963;42.644;23.336;2023-05-07T10:33:13;5.97;;;5.37;;
1471;SDS011;963;42.644;23.336;2023-05-07T10:35:42;5.27;;;4.77;;
1471;SDS011;963;42.644;23.336;2023-05-07T10:38:10;9.43;;;5.93;;
1471;SDS011;963;42.644;23.336;2023-05-07T10:40:35;6.10;;;5.50;;
1471;SDS011;963;42.644;23.336;2023-05-07T10:43:02;6.63;;;5.10;;
1471;SDS011;963;42.644;23.336;2023-05-07T10:45:31;6.70;;;5.10;;
1471;SDS011;963;42.644;23.336;2023-05-07T10:48:13;7.20;;;5.10;;
1471;SDS011;963;42.644;23.336;2023-05-07T10:50:43;6.93;;;5.20;;
1471;SDS011;963;42.644;23.336;2023-05-07T10:55:47;7.30;;;5.57;;
1471;SDS011;963;42.644;23.336;2023-05-07T11:00:46;5.70;;;5.20;;
1471;SDS011;963;42.644;23.336;2023-05-07T11:03:12;5.03;;;4.53;;
1471;SDS011;963;42.644;23.336;2023-05-07T11:05:37;6.33;;;4.83;;
1471;SDS011;963;42.644;23.336;2023-05-07T11:08:04;6.53;;;5.17;;
1471;SDS011;963;42.644;23.336;2023-05-07T11:16:19;5.70;;;4.80;;
1471;SDS011;963;42.644;23.336;2023-05-07T11:18:49;6.27;;;4.47;;
1471;SDS011;963;42.644;23.336;2023-05-07T11:21:34;9.00;;;5.00;;
1471;SDS011;963;42.644;23.336;2023-05-07T11:24:01;5.87;;;5.27;;
1471;SDS011;963;42.644;23.336;2023-05-07T11:26:29;5.60;;;4.77;;
1471;SDS011;963;42.644;23.336;2023-05-07T11:28:56;5.50;;;4.73;;
1471;SDS011;963;42.644;23.336;2023-05-07T11:31:25;8.20;;;4.80;;
1471;SDS011;963;42.644;23.336;2023-05-07T11:33:53;7.57;;;5.10;;
1471;SDS011;963;42.644;23.336;2023-05-07T11:36:20;5.03;;;4.53;;
1471;SDS011;963;42.644;23.336;2023-05-07T11:38:47;5.40;;;4.73;;
1471;SDS011;963;42.644;23.336;2023-05-07T11:41:12;11.03;;;5.20;;
1471;SDS011;963;42.644;23.336;2023-05-07T11:43:38;5.67;;;5.10;;
1471;SDS011;963;42.644;23.336;2023-05-07T11:46:18;6.60;;;4.70;;
1471;SDS011;963;42.644;23.336;2023-05-07T11:48:43;9.73;;;5.37;;
1471;SDS011;963;42.644;23.336;2023-05-07T11:51:09;5.80;;;5.10;;
1471;SDS011;963;42.644;23.336;2023-05-07T11:53:37;10.43;;;5.60;;
1471;SDS011;963;42.644;23.336;2023-05-07T11:56:11;5.50;;;5.00;;
1471;SDS011;963;42.644;23.336;2023-05-07T11:58:38;5.80;;;5.30;;
1471;SDS011;963;42.644;23.336;2023-05-07T12:01:03;8.27;;;5.70;;
1471;SDS011;963;42.644;23.336;2023-05-07T12:03:29;5.67;;;4.50;;
1471;SDS011;963;42.644;23.336;2023-05-07T12:05:55;8.13;;;5.60;;
1471;SDS011;963;42.644;23.336;2023-05-07T12:08:21;4.97;;;4.47;;
1471;SDS011;963;42.644;23.336;2023-05-07T12:10:48;4.50;;;4.10;;
1471;SDS011;963;42.644;23.336;2023-05-07T12:13:18;5.67;;;4.30;;
1471;SDS011;963;42.644;23.336;2023-05-07T12:15:45;12.43;;;5.17;;
1471;SDS011;963;42.644;23.336;2023-05-07T12:18:11;6.50;;;4.60;;
1471;SDS011;963;42.644;23.336;2023-05-07T12:20:38;6.43;;;5.43;;
1471;SDS011;963;42.644;23.336;2023-05-07T12:23:04;8.67;;;4.93;;
1471;SDS011;963;42.644;23.336;2023-05-07T12:25:30;6.20;;;5.60;;
1471;SDS011;963;42.644;23.336;2023-05-07T12:27:56;5.80;;;4.57;;
1471;SDS011;963;42.644;23.336;2023-05-07T12:30:24;8.13;;;4.20;;
1471;SDS011;963;42.644;23.336;2023-05-07T12:32:53;8.33;;;4.60;;
1471;SDS011;963;42.644;23.336;2023-05-07T12:35:53;5.20;;;4.70;;
1471;SDS011;963;42.644;23.336;2023-05-07T12:38:13;10.30;;;5.10;;
1471;SDS011;963;42.644;23.336;2023-05-07T12:40:45;7.23;;;4.00;;
1471;SDS011;963;42.644;23.336;2023-05-07T12:43:26;5.10;;;4.60;;
1471;SDS011;963;42.644;23.336;2023-05-07T12:45:56;5.33;;;4.83;;
1471;SDS011;963;42.644;23.336;2023-05-07T12:48:24;8.07;;;5.30;;
1471;SDS011;963;42.644;23.336;2023-05-07T12:50:55;5.47;;;4.50;;
1471;SDS011;963;42.644;23.336;2023-05-07T12:53:22;5.07;;;4.33;;
1471;SDS011;963;42.644;23.336;2023-05-07T12:55:58;5.13;;;4.37;;
1471;SDS011;963;42.644;23.336;2023-05-07T12:58:28;7.47;;;4.03;;
1471;SDS011;963;42.644;23.336;2023-05-07T13:00:55;4.73;;;3.67;;
1471;SDS011;963;42.644;23.336;2023-05-07T13:03:24;3.67;;;3.27;;
1471;SDS011;963;42.644;23.336;2023-05-07T13:05:51;5.10;;;3.97;;
1471;SDS011;963;42.644;23.336;2023-05-07T13:08:27;4.90;;;3.23;;
1471;SDS011;963;42.644;23.336;2023-05-07T13:10:54;6.13;;;3.70;;
1471;SDS011;963;42.644;23.336;2023-05-07T13:13:20;8.20;;;3.70;;
1471;SDS011;963;42.644;23.336;2023-05-07T13:15:46;3.93;;;3.50;;
1471;SDS011;963;42.644;23.336;2023-05-07T13:18:12;6.73;;;3.30;;
1471;SDS011;963;42.644;23.336;2023-05-07T13:20:38;4.13;;;3.57;;
1471;SDS011;963;42.644;23.336;2023-05-07T13:23:03;4.40;;;3.80;;
1471;SDS011;963;42.644;23.336;2023-05-07T13:25:29;4.30;;;3.90;;
1471;SDS011;963;42.644;23.336;2023-05-07T13:27:58;6.97;;;3.30;;
1471;SDS011;963;42.644;23.336;2023-05-07T13:30:24;3.63;;;3.17;;
1471;SDS011;963;42.644;23.336;2023-05-07T13:32:49;5.17;;;3.17;;
1471;SDS011;963;42.644;23.336;2023-05-07T13:35:15;8.73;;;3.50;;
1471;SDS011;963;42.644;23.336;2023-05-07T13:37:41;5.20;;;2.97;;
1471;SDS011;963;42.644;23.336;2023-05-07T13:40:06;4.07;;;3.33;;
1471;SDS011;963;42.644;23.336;2023-05-07T13:42:32;5.77;;;3.50;;
1471;SDS011;963;42.644;23.336;2023-05-07T13:44:58;4.77;;;2.80;;
1471;SDS011;963;42.644;23.336;2023-05-07T13:47:23;3.90;;;2.90;;
1471;SDS011;963;42.644;23.336;2023-05-07T13:49:49;4.20;;;3.03;;
1471;SDS011;963;42.644;23.336;2023-05-07T13:52:17;3.60;;;3.07;;
1471;SDS011;963;42.644;23.336;2023-05-07T13:54:43;3.37;;;3.07;;
1471;SDS011;963;42.644;23.336;2023-05-07T13:57:08;4.60;;;3.00;;
1471;SDS011;963;42.644;23.336;2023-05-07T13:59:34;4.90;;;3.43;;
1471;SDS011;963;42.644;23.336;2023-05-07T14:01:59;3.90;;;3.40;;
1471;SDS011;963;42.644;23.336;2023-05-07T14:04:25;3.80;;;2.70;;
1471;SDS011;963;42.644;23.336;2023-05-07T14:06:50;4.30;;;3.23;;
1471;SDS011;963;42.644;23.336;2023-05-07T14:09:16;4.97;;;3.30;;
1471;SDS011;963;42.644;23.336;2023-05-07T14:11:41;4.40;;;3.23;;
1471;SDS011;963;42.644;23.336;2023-05-07T14:14:07;5.53;;;3.00;;
1471;SDS011;963;42.644;23.336;2023-05-07T14:16:35;4.30;;;2.70;;
1471;SDS011;963;42.644;23.336;2023-05-07T14:19:01;3.80;;;3.30;;
1471;SDS011;963;42.644;23.336;2023-05-07T14:21:26;4.17;;;3.30;;
1471;SDS011;963;42.644;23.336;2023-05-07T14:23:51;3.63;;;3.00;;
1471;SDS011;963;42.644;23.336;2023-05-07T14:26:17;4.87;;;3.70;;
1471;SDS011;963;42.644;23.336;2023-05-07T14:28:42;3.90;;;3.60;;
1471;SDS011;963;42.644;23.336;2023-05-07T14:31:11;4.57;;;3.10;;
1471;SDS011;963;42.644;23.336;2023-05-07T14:33:36;3.70;;;3.13;;
1471;SDS011;963;42.644;23.336;2023-05-07T14:36:02;4.03;;;3.63;;
1471;SDS011;963;42.644;23.336;2023-05-07T14:38:28;7.23;;;3.30;;
1471;SDS011;963;42.644;23.336;2023-05-07T14:40:54;3.73;;;3.10;;
1471;SDS011;963;42.644;23.336;2023-05-07T14:43:21;5.90;;;2.90;;
1471;SDS011;963;42.644;23.336;2023-05-07T14:45:47;5.53;;;3.70;;
1471;SDS011;963;42.644;23.336;2023-05-07T14:48:12;3.93;;;3.60;;
1471;SDS011;963;42.644;23.336;2023-05-07T14:50:40;3.90;;;3.47;;
1471;SDS011;963;42.644;23.336;2023-05-07T14:53:06;4.70;;;4.30;;
1471;SDS011;963;42.644;23.336;2023-05-07T14:55:32;4.83;;;3.67;;
1471;SDS011;963;42.644;23.336;2023-05-07T14:57:58;4.80;;;3.43;;
1471;SDS011;963;42.644;23.336;2023-05-07T15:00:24;4.40;;;3.60;;
1471;SDS011;963;42.644;23.336;2023-05-07T15:02:49;3.80;;;3.40;;
1471;SDS011;963;42.644;23.336;2023-05-07T15:05:14;3.80;;;3.00;;
1471;SDS011;963;42.644;23.336;2023-05-07T15:07:40;4.93;;;2.90;;
1471;SDS011;963;42.644;23.336;2023-05-07T15:10:05;6.53;;;3.23;;
1471;SDS011;963;42.644;23.336;2023-05-07T15:12:31;3.80;;;3.40;;
1471;SDS011;963;42.644;23.336;2023-05-07T15:14:57;4.80;;;3.40;;
1471;SDS011;963;42.644;23.336;2023-05-07T15:17:22;4.10;;;3.33;;
1471;SDS011;963;42.644;23.336;2023-05-07T15:19:48;3.50;;;3.20;;
1471;SDS011;963;42.644;23.336;2023-05-07T15:22:13;4.83;;;3.37;;